Terminal Aerodrome Forecast
Issued by NWS Goodland, KS

Home | Current Version | Previous Version | Text Only | Print | Product List | Glossary On
Versions: 1 2 3 4 5 6 7 8 9 10 11 12 13 14 15 16 17 18 19 20 21 22
855
FTUS43 KGLD 261904 CCA
TAFGLD
TAF COR
KGLD 261904Z 2619/2718 14009KT P6SM VCTS SCT035CB BKN060
      TEMPO 2619/2622 2SM +TSRA BR OVC025CB
     FM270000 11006KT P6SM SCT090
     FM270600 18006KT P6SM SCT050
     FM270900 20006KT 2SM BR BKN007
     FM271600 VRB03KT P6SM SCT150=

USA.gov is the U.S. government's official web portal to all federal, state and local government web resources and services.